Terminal Aerodrome Forecast
Issued by NWS

Home | Current Version | Previous Version | Text Only | Print | Product List | Glossary On
Versions: 1 2 3 4 5 6 7 8 9 10 11 12 13 14 15 16
000
FTAK31 PAJN 270500
TAFAGY
TAF
PAGY 270520Z 2706/2806 21008KT P6SM VCSH BKN015 OVC030
     FM270900 03013KT P6SM VCSH SCT020 BKN050
     FM271200 03013KT P6SM FEW060
     FM271500 03013KT P6SM SKC
      AMD LTD TO CLD VIS AND WIND=

USA.gov is the U.S. government's official web portal to all federal, state and local government web resources and services.